sensor_id;sensor_type;location;lat;lon;timestamp;P1;durP1;ratioP1;P2;durP2;ratioP2
27489;SDS011;14925;51.026;13.752;2023-08-08T00:01:27;10.70;;;2.83;;
27489;SDS011;14925;51.026;13.752;2023-08-08T00:03:53;8.57;;;2.65;;
27489;SDS011;14925;51.026;13.752;2023-08-08T00:06:18;5.18;;;2.63;;
27489;SDS011;14925;51.026;13.752;2023-08-08T00:08:43;6.38;;;2.70;;
27489;SDS011;14925;51.026;13.752;2023-08-08T00:11:09;7.95;;;2.78;;
27489;SDS011;14925;51.026;13.752;2023-08-08T00:13:34;9.68;;;2.70;;
27489;SDS011;14925;51.026;13.752;2023-08-08T00:16:00;7.28;;;3.00;;
27489;SDS011;14925;51.026;13.752;2023-08-08T00:18:25;10.73;;;2.72;;
27489;SDS011;14925;51.026;13.752;2023-08-08T00:20:50;7.25;;;2.53;;
27489;SDS011;14925;51.026;13.752;2023-08-08T00:23:18;8.82;;;2.63;;
27489;SDS011;14925;51.026;13.752;2023-08-08T00:25:44;8.45;;;2.75;;
27489;SDS011;14925;51.026;13.752;2023-08-08T00:28:14;8.32;;;2.63;;
27489;SDS011;14925;51.026;13.752;2023-08-08T00:30:40;10.07;;;2.70;;
27489;SDS011;14925;51.026;13.752;2023-08-08T00:33:05;9.45;;;2.45;;
27489;SDS011;14925;51.026;13.752;2023-08-08T00:35:31;6.25;;;2.50;;
27489;SDS011;14925;51.026;13.752;2023-08-08T00:37:56;4.80;;;2.75;;
27489;SDS011;14925;51.026;13.752;2023-08-08T00:40:21;5.50;;;2.33;;
27489;SDS011;14925;51.026;13.752;2023-08-08T00:42:47;7.53;;;2.53;;
27489;SDS011;14925;51.026;13.752;2023-08-08T00:45:12;6.15;;;2.70;;
27489;SDS011;14925;51.026;13.752;2023-08-08T00:47:37;11.40;;;2.83;;
27489;SDS011;14925;51.026;13.752;2023-08-08T00:50:03;10.65;;;2.88;;
27489;SDS011;14925;51.026;13.752;2023-08-08T00:52:29;6.68;;;2.92;;
27489;SDS011;14925;51.026;13.752;2023-08-08T00:54:55;4.47;;;2.83;;
27489;SDS011;14925;51.026;13.752;2023-08-08T00:57:20;7.15;;;2.60;;
27489;SDS011;14925;51.026;13.752;2023-08-08T00:59:45;7.28;;;2.83;;
27489;SDS011;14925;51.026;13.752;2023-08-08T01:02:11;7.72;;;2.55;;
27489;SDS011;14925;51.026;13.752;2023-08-08T01:04:36;6.60;;;2.30;;
27489;SDS011;14925;51.026;13.752;2023-08-08T01:09:36;8.82;;;3.17;;
27489;SDS011;14925;51.026;13.752;2023-08-08T01:12:05;7.88;;;2.55;;
27489;SDS011;14925;51.026;13.752;2023-08-08T01:14:31;7.55;;;2.33;;
27489;SDS011;14925;51.026;13.752;2023-08-08T01:16:57;4.97;;;2.30;;
27489;SDS011;14925;51.026;13.752;2023-08-08T01:19:25;9.15;;;2.97;;
27489;SDS011;14925;51.026;13.752;2023-08-08T01:21:53;4.78;;;2.53;;
27489;SDS011;14925;51.026;13.752;2023-08-08T01:24:22;10.65;;;2.80;;
27489;SDS011;14925;51.026;13.752;2023-08-08T01:26:50;8.30;;;2.28;;
27489;SDS011;14925;51.026;13.752;2023-08-08T01:29:16;5.72;;;2.53;;
27489;SDS011;14925;51.026;13.752;2023-08-08T01:31:41;5.85;;;2.35;;
27489;SDS011;14925;51.026;13.752;2023-08-08T01:34:07;6.93;;;2.80;;
27489;SDS011;14925;51.026;13.752;2023-08-08T01:36:35;6.47;;;2.63;;
27489;SDS011;14925;51.026;13.752;2023-08-08T01:39:13;5.22;;;2.38;;
27489;SDS011;14925;51.026;13.752;2023-08-08T01:41:39;7.63;;;2.72;;
27489;SDS011;14925;51.026;13.752;2023-08-08T01:44:06;6.00;;;2.65;;
27489;SDS011;14925;51.026;13.752;2023-08-08T01:46:32;9.38;;;2.67;;
27489;SDS011;14925;51.026;13.752;2023-08-08T01:48:58;8.85;;;2.58;;
27489;SDS011;14925;51.026;13.752;2023-08-08T01:51:24;10.38;;;2.90;;
27489;SDS011;14925;51.026;13.752;2023-08-08T01:53:50;9.13;;;2.47;;
27489;SDS011;14925;51.026;13.752;2023-08-08T01:56:18;8.48;;;2.88;;
27489;SDS011;14925;51.026;13.752;2023-08-08T01:58:44;9.98;;;2.65;;
27489;SDS011;14925;51.026;13.752;2023-08-08T02:01:09;6.75;;;2.70;;
27489;SDS011;14925;51.026;13.752;2023-08-08T02:03:34;7.45;;;2.70;;
27489;SDS011;14925;51.026;13.752;2023-08-08T02:06:00;6.75;;;3.10;;
27489;SDS011;14925;51.026;13.752;2023-08-08T02:08:25;10.02;;;2.75;;
27489;SDS011;14925;51.026;13.752;2023-08-08T02:10:50;10.43;;;3.03;;
27489;SDS011;14925;51.026;13.752;2023-08-08T02:13:16;4.90;;;2.58;;
27489;SDS011;14925;51.026;13.752;2023-08-08T02:15:41;8.52;;;2.58;;
27489;SDS011;14925;51.026;13.752;2023-08-08T02:18:07;5.22;;;2.40;;
27489;SDS011;14925;51.026;13.752;2023-08-08T02:20:34;6.85;;;2.45;;
27489;SDS011;14925;51.026;13.752;2023-08-08T02:22:59;8.02;;;2.70;;
27489;SDS011;14925;51.026;13.752;2023-08-08T02:25:24;10.48;;;2.85;;
27489;SDS011;14925;51.026;13.752;2023-08-08T02:27:50;9.80;;;2.92;;
27489;SDS011;14925;51.026;13.752;2023-08-08T02:30:15;10.55;;;3.10;;
27489;SDS011;14925;51.026;13.752;2023-08-08T02:32:41;5.75;;;2.63;;
27489;SDS011;14925;51.026;13.752;2023-08-08T02:35:07;8.75;;;2.60;;
27489;SDS011;14925;51.026;13.752;2023-08-08T02:37:32;6.00;;;2.70;;
27489;SDS011;14925;51.026;13.752;2023-08-08T02:39:58;11.00;;;2.63;;
27489;SDS011;14925;51.026;13.752;2023-08-08T02:42:23;7.15;;;2.45;;
27489;SDS011;14925;51.026;13.752;2023-08-08T02:44:49;8.57;;;2.60;;
27489;SDS011;14925;51.026;13.752;2023-08-08T02:47:14;7.45;;;2.40;;
27489;SDS011;14925;51.026;13.752;2023-08-08T02:49:39;7.18;;;2.33;;
27489;SDS011;14925;51.026;13.752;2023-08-08T02:52:05;4.50;;;2.53;;
27489;SDS011;14925;51.026;13.752;2023-08-08T02:54:30;5.65;;;2.40;;
27489;SDS011;14925;51.026;13.752;2023-08-08T02:56:56;4.50;;;2.13;;
27489;SDS011;14925;51.026;13.752;2023-08-08T02:59:21;5.75;;;2.60;;
27489;SDS011;14925;51.026;13.752;2023-08-08T03:01:46;8.63;;;2.50;;
27489;SDS011;14925;51.026;13.752;2023-08-08T03:04:12;7.70;;;2.55;;
27489;SDS011;14925;51.026;13.752;2023-08-08T03:06:38;7.78;;;2.70;;
27489;SDS011;14925;51.026;13.752;2023-08-08T03:09:03;6.88;;;2.40;;
27489;SDS011;14925;51.026;13.752;2023-08-08T03:11:28;6.38;;;2.60;;
27489;SDS011;14925;51.026;13.752;2023-08-08T03:13:54;7.20;;;2.63;;
27489;SDS011;14925;51.026;13.752;2023-08-08T03:16:19;7.05;;;2.70;;
27489;SDS011;14925;51.026;13.752;2023-08-08T03:18:45;5.82;;;2.45;;
27489;SDS011;14925;51.026;13.752;2023-08-08T03:21:10;6.15;;;2.63;;
27489;SDS011;14925;51.026;13.752;2023-08-08T03:23:36;6.30;;;3.40;;
27489;SDS011;14925;51.026;13.752;2023-08-08T03:26:01;8.77;;;3.17;;
27489;SDS011;14925;51.026;13.752;2023-08-08T03:28:26;4.72;;;2.38;;
27489;SDS011;14925;51.026;13.752;2023-08-08T03:30:52;7.22;;;2.55;;
27489;SDS011;14925;51.026;13.752;2023-08-08T03:33:17;7.07;;;2.83;;
27489;SDS011;14925;51.026;13.752;2023-08-08T03:35:42;8.15;;;2.83;;
27489;SDS011;14925;51.026;13.752;2023-08-08T03:38:08;11.00;;;2.90;;
27489;SDS011;14925;51.026;13.752;2023-08-08T03:40:34;8.05;;;3.20;;
27489;SDS011;14925;51.026;13.752;2023-08-08T03:42:59;9.52;;;2.75;;
27489;SDS011;14925;51.026;13.752;2023-08-08T03:45:25;4.45;;;2.20;;
27489;SDS011;14925;51.026;13.752;2023-08-08T03:47:50;4.22;;;2.15;;
27489;SDS011;14925;51.026;13.752;2023-08-08T03:50:15;5.05;;;2.58;;
27489;SDS011;14925;51.026;13.752;2023-08-08T03:52:41;4.85;;;2.25;;
27489;SDS011;14925;51.026;13.752;2023-08-08T03:55:06;5.50;;;2.28;;
27489;SDS011;14925;51.026;13.752;2023-08-08T03:57:32;4.55;;;2.28;;
27489;SDS011;14925;51.026;13.752;2023-08-08T03:59:57;6.30;;;2.17;;
27489;SDS011;14925;51.026;13.752;2023-08-08T04:02:23;5.70;;;2.38;;
27489;SDS011;14925;51.026;13.752;2023-08-08T04:04:49;4.90;;;2.30;;
27489;SDS011;14925;51.026;13.752;2023-08-08T04:07:18;4.57;;;2.30;;
27489;SDS011;14925;51.026;13.752;2023-08-08T04:09:43;3.28;;;2.10;;
27489;SDS011;14925;51.026;13.752;2023-08-08T04:12:08;8.02;;;2.42;;
27489;SDS011;14925;51.026;13.752;2023-08-08T04:14:34;5.90;;;2.15;;
27489;SDS011;14925;51.026;13.752;2023-08-08T04:16:59;4.40;;;2.10;;
27489;SDS011;14925;51.026;13.752;2023-08-08T04:19:24;7.43;;;2.00;;
27489;SDS011;14925;51.026;13.752;2023-08-08T04:21:50;5.03;;;2.30;;
27489;SDS011;14925;51.026;13.752;2023-08-08T04:24:15;5.65;;;2.47;;
27489;SDS011;14925;51.026;13.752;2023-08-08T04:26:41;6.30;;;2.30;;
27489;SDS011;14925;51.026;13.752;2023-08-08T04:29:09;5.57;;;2.00;;
27489;SDS011;14925;51.026;13.752;2023-08-08T04:31:34;7.85;;;2.20;;
27489;SDS011;14925;51.026;13.752;2023-08-08T04:34:00;4.18;;;1.90;;
27489;SDS011;14925;51.026;13.752;2023-08-08T04:36:26;4.88;;;2.10;;
27489;SDS011;14925;51.026;13.752;2023-08-08T04:38:52;4.70;;;2.00;;
27489;SDS011;14925;51.026;13.752;2023-08-08T04:41:17;4.78;;;1.98;;
27489;SDS011;14925;51.026;13.752;2023-08-08T04:43:43;4.70;;;1.95;;
27489;SDS011;14925;51.026;13.752;2023-08-08T04:46:08;5.20;;;1.92;;
27489;SDS011;14925;51.026;13.752;2023-08-08T04:48:34;5.60;;;1.92;;
27489;SDS011;14925;51.026;13.752;2023-08-08T04:51:00;4.75;;;2.13;;
27489;SDS011;14925;51.026;13.752;2023-08-08T04:53:25;4.65;;;2.30;;
27489;SDS011;14925;51.026;13.752;2023-08-08T04:55:51;5.22;;;2.05;;
27489;SDS011;14925;51.026;13.752;2023-08-08T04:58:16;6.80;;;2.42;;
27489;SDS011;14925;51.026;13.752;2023-08-08T05:00:42;5.57;;;2.20;;
27489;SDS011;14925;51.026;13.752;2023-08-08T05:03:07;6.20;;;2.20;;
27489;SDS011;14925;51.026;13.752;2023-08-08T05:05:32;6.28;;;2.10;;
27489;SDS011;14925;51.026;13.752;2023-08-08T05:07:58;6.05;;;2.22;;
27489;SDS011;14925;51.026;13.752;2023-08-08T05:10:23;5.15;;;2.50;;
27489;SDS011;14925;51.026;13.752;2023-08-08T05:12:48;7.55;;;2.17;;
27489;SDS011;14925;51.026;13.752;2023-08-08T05:15:14;3.95;;;2.40;;
27489;SDS011;14925;51.026;13.752;2023-08-08T05:17:39;6.47;;;2.17;;
27489;SDS011;14925;51.026;13.752;2023-08-08T05:20:05;4.50;;;2.17;;
27489;SDS011;14925;51.026;13.752;2023-08-08T05:22:31;4.57;;;2.03;;
27489;SDS011;14925;51.026;13.752;2023-08-08T05:24:56;3.05;;;2.00;;
27489;SDS011;14925;51.026;13.752;2023-08-08T05:27:22;4.82;;;2.15;;
27489;SDS011;14925;51.026;13.752;2023-08-08T05:29:47;5.15;;;2.08;;
27489;SDS011;14925;51.026;13.752;2023-08-08T05:32:12;5.93;;;1.80;;
27489;SDS011;14925;51.026;13.752;2023-08-08T05:34:38;5.50;;;1.92;;
27489;SDS011;14925;51.026;13.752;2023-08-08T05:37:03;5.68;;;2.20;;
27489;SDS011;14925;51.026;13.752;2023-08-08T05:39:32;6.13;;;2.00;;
27489;SDS011;14925;51.026;13.752;2023-08-08T05:41:57;6.28;;;2.00;;
27489;SDS011;14925;51.026;13.752;2023-08-08T05:44:23;4.75;;;2.08;;
27489;SDS011;14925;51.026;13.752;2023-08-08T05:46:48;5.85;;;1.90;;
27489;SDS011;14925;51.026;13.752;2023-08-08T05:49:13;3.83;;;2.10;;
27489;SDS011;14925;51.026;13.752;2023-08-08T05:51:39;5.75;;;2.13;;
27489;SDS011;14925;51.026;13.752;2023-08-08T05:54:05;10.25;;;2.05;;
27489;SDS011;14925;51.026;13.752;2023-08-08T05:56:34;4.63;;;1.95;;
27489;SDS011;14925;51.026;13.752;2023-08-08T05:59:01;5.22;;;2.30;;
27489;SDS011;14925;51.026;13.752;2023-08-08T06:01:26;5.82;;;2.50;;
27489;SDS011;14925;51.026;13.752;2023-08-08T06:03:52;4.63;;;2.00;;
27489;SDS011;14925;51.026;13.752;2023-08-08T06:06:18;9.77;;;2.10;;
27489;SDS011;14925;51.026;13.752;2023-08-08T06:08:43;4.22;;;2.20;;
27489;SDS011;14925;51.026;13.752;2023-08-08T06:11:09;5.07;;;1.85;;
27489;SDS011;14925;51.026;13.752;2023-08-08T06:13:34;6.65;;;2.13;;
27489;SDS011;14925;51.026;13.752;2023-08-08T06:15:59;6.68;;;1.80;;
27489;SDS011;14925;51.026;13.752;2023-08-08T06:18:26;5.20;;;1.88;;
27489;SDS011;14925;51.026;13.752;2023-08-08T06:20:51;5.30;;;2.00;;
27489;SDS011;14925;51.026;13.752;2023-08-08T06:23:17;6.22;;;2.05;;
27489;SDS011;14925;51.026;13.752;2023-08-08T06:25:42;3.40;;;1.75;;
27489;SDS011;14925;51.026;13.752;2023-08-08T06:28:08;5.03;;;1.90;;
27489;SDS011;14925;51.026;13.752;2023-08-08T06:30:33;5.70;;;1.75;;
27489;SDS011;14925;51.026;13.752;2023-08-08T06:32:59;6.05;;;2.00;;
27489;SDS011;14925;51.026;13.752;2023-08-08T06:35:24;3.65;;;1.80;;
27489;SDS011;14925;51.026;13.752;2023-08-08T06:37:50;6.00;;;1.95;;
27489;SDS011;14925;51.026;13.752;2023-08-08T06:40:15;3.58;;;1.70;;
27489;SDS011;14925;51.026;13.752;2023-08-08T06:42:41;6.22;;;2.10;;
27489;SDS011;14925;51.026;13.752;2023-08-08T06:45:07;3.35;;;1.70;;
27489;SDS011;14925;51.026;13.752;2023-08-08T06:47:34;6.20;;;1.70;;
27489;SDS011;14925;51.026;13.752;2023-08-08T06:50:00;7.30;;;2.03;;
27489;SDS011;14925;51.026;13.752;2023-08-08T06:52:25;5.05;;;1.90;;
27489;SDS011;14925;51.026;13.752;2023-08-08T06:54:51;3.22;;;1.92;;
27489;SDS011;14925;51.026;13.752;2023-08-08T06:57:16;4.20;;;1.90;;
27489;SDS011;14925;51.026;13.752;2023-08-08T06:59:41;7.72;;;1.88;;
27489;SDS011;14925;51.026;13.752;2023-08-08T07:02:07;3.83;;;1.95;;
27489;SDS011;14925;51.026;13.752;2023-08-08T07:04:32;5.15;;;1.90;;
27489;SDS011;14925;51.026;13.752;2023-08-08T07:06:58;2.15;;;1.63;;
27489;SDS011;14925;51.026;13.752;2023-08-08T07:09:23;5.40;;;1.80;;
27489;SDS011;14925;51.026;13.752;2023-08-08T07:11:49;2.75;;;1.58;;
27489;SDS011;14925;51.026;13.752;2023-08-08T07:14:16;3.53;;;1.83;;
27489;SDS011;14925;51.026;13.752;2023-08-08T07:16:41;5.35;;;1.58;;
27489;SDS011;14925;51.026;13.752;2023-08-08T07:19:06;6.53;;;1.90;;
27489;SDS011;14925;51.026;13.752;2023-08-08T07:21:32;4.45;;;1.80;;
27489;SDS011;14925;51.026;13.752;2023-08-08T07:23:57;5.05;;;1.90;;
27489;SDS011;14925;51.026;13.752;2023-08-08T07:26:25;4.18;;;1.92;;
27489;SDS011;14925;51.026;13.752;2023-08-08T07:28:50;3.60;;;1.77;;
27489;SDS011;14925;51.026;13.752;2023-08-08T07:31:16;5.55;;;2.10;;
27489;SDS011;14925;51.026;13.752;2023-08-08T07:33:41;5.00;;;1.88;;
27489;SDS011;14925;51.026;13.752;2023-08-08T07:36:07;2.83;;;1.60;;
27489;SDS011;14925;51.026;13.752;2023-08-08T07:38:32;5.07;;;1.90;;
27489;SDS011;14925;51.026;13.752;2023-08-08T07:40:58;7.50;;;2.13;;
27489;SDS011;14925;51.026;13.752;2023-08-08T07:43:23;3.97;;;2.05;;
27489;SDS011;14925;51.026;13.752;2023-08-08T07:45:50;7.70;;;1.85;;
27489;SDS011;14925;51.026;13.752;2023-08-08T07:48:16;3.30;;;1.90;;
27489;SDS011;14925;51.026;13.752;2023-08-08T07:50:41;3.30;;;1.70;;
27489;SDS011;14925;51.026;13.752;2023-08-08T07:53:06;4.50;;;1.65;;
27489;SDS011;14925;51.026;13.752;2023-08-08T07:55:32;5.25;;;2.17;;
27489;SDS011;14925;51.026;13.752;2023-08-08T07:57:57;3.22;;;1.50;;
27489;SDS011;14925;51.026;13.752;2023-08-08T08:00:23;5.45;;;2.25;;
27489;SDS011;14925;51.026;13.752;2023-08-08T08:02:48;2.85;;;1.67;;
27489;SDS011;14925;51.026;13.752;2023-08-08T08:05:14;5.22;;;1.92;;
27489;SDS011;14925;51.026;13.752;2023-08-08T08:07:39;3.53;;;1.85;;
27489;SDS011;14925;51.026;13.752;2023-08-08T08:10:06;4.32;;;1.55;;
27489;SDS011;14925;51.026;13.752;2023-08-08T08:12:34;2.65;;;1.50;;
27489;SDS011;14925;51.026;13.752;2023-08-08T08:14:59;4.43;;;1.65;;
27489;SDS011;14925;51.026;13.752;2023-08-08T08:17:25;5.00;;;1.65;;
27489;SDS011;14925;51.026;13.752;2023-08-08T08:19:53;3.25;;;1.67;;
27489;SDS011;14925;51.026;13.752;2023-08-08T08:22:21;6.45;;;1.60;;
27489;SDS011;14925;51.026;13.752;2023-08-08T08:24:47;3.67;;;1.75;;
27489;SDS011;14925;51.026;13.752;2023-08-08T08:27:12;4.05;;;1.90;;
27489;SDS011;14925;51.026;13.752;2023-08-08T08:29:38;6.38;;;1.42;;
27489;SDS011;14925;51.026;13.752;2023-08-08T08:32:04;2.30;;;1.60;;
27489;SDS011;14925;51.026;13.752;2023-08-08T08:34:29;5.03;;;1.60;;
27489;SDS011;14925;51.026;13.752;2023-08-08T08:36:55;3.28;;;1.63;;
27489;SDS011;14925;51.026;13.752;2023-08-08T08:39:20;4.55;;;1.60;;
27489;SDS011;14925;51.026;13.752;2023-08-08T08:41:49;3.58;;;1.60;;
27489;SDS011;14925;51.026;13.752;2023-08-08T08:44:19;3.42;;;1.50;;
27489;SDS011;14925;51.026;13.752;2023-08-08T08:46:47;4.90;;;1.65;;
27489;SDS011;14925;51.026;13.752;2023-08-08T08:49:13;2.72;;;1.55;;
27489;SDS011;14925;51.026;13.752;2023-08-08T08:51:39;2.95;;;1.50;;
27489;SDS011;14925;51.026;13.752;2023-08-08T08:54:05;3.75;;;1.60;;
27489;SDS011;14925;51.026;13.752;2023-08-08T08:56:30;7.10;;;1.40;;
27489;SDS011;14925;51.026;13.752;2023-08-08T08:58:57;2.75;;;1.40;;
27489;SDS011;14925;51.026;13.752;2023-08-08T09:01:23;4.50;;;1.50;;
27489;SDS011;14925;51.026;13.752;2023-08-08T09:03:52;4.40;;;1.50;;
27489;SDS011;14925;51.026;13.752;2023-08-08T09:06:18;2.42;;;1.33;;
27489;SDS011;14925;51.026;13.752;2023-08-08T09:08:45;1.95;;;1.45;;
27489;SDS011;14925;51.026;13.752;2023-08-08T09:11:12;5.22;;;1.38;;
27489;SDS011;14925;51.026;13.752;2023-08-08T09:13:38;4.03;;;1.48;;
27489;SDS011;14925;51.026;13.752;2023-08-08T09:16:05;4.45;;;1.80;;
27489;SDS011;14925;51.026;13.752;2023-08-08T09:18:31;5.00;;;1.77;;
27489;SDS011;14925;51.026;13.752;2023-08-08T09:20:58;5.45;;;1.85;;
27489;SDS011;14925;51.026;13.752;2023-08-08T09:23:26;4.63;;;1.88;;
27489;SDS011;14925;51.026;13.752;2023-08-08T09:25:51;6.38;;;1.80;;
27489;SDS011;14925;51.026;13.752;2023-08-08T09:28:17;4.85;;;1.70;;
27489;SDS011;14925;51.026;13.752;2023-08-08T09:30:42;6.40;;;1.70;;
27489;SDS011;14925;51.026;13.752;2023-08-08T09:33:08;4.60;;;1.88;;
27489;SDS011;14925;51.026;13.752;2023-08-08T09:35:33;6.63;;;1.92;;
27489;SDS011;14925;51.026;13.752;2023-08-08T09:37:59;4.47;;;1.80;;
27489;SDS011;14925;51.026;13.752;2023-08-08T09:40:24;4.30;;;2.13;;
27489;SDS011;14925;51.026;13.752;2023-08-08T09:42:53;4.65;;;1.92;;
27489;SDS011;14925;51.026;13.752;2023-08-08T09:45:18;5.38;;;1.80;;
27489;SDS011;14925;51.026;13.752;2023-08-08T09:47:45;4.13;;;1.70;;
27489;SDS011;14925;51.026;13.752;2023-08-08T09:50:11;2.85;;;1.90;;
27489;SDS011;14925;51.026;13.752;2023-08-08T09:52:36;4.57;;;2.00;;
27489;SDS011;14925;51.026;13.752;2023-08-08T09:55:04;5.28;;;1.92;;
27489;SDS011;14925;51.026;13.752;2023-08-08T09:57:30;5.47;;;1.70;;
27489;SDS011;14925;51.026;13.752;2023-08-08T09:59:55;5.38;;;2.10;;
27489;SDS011;14925;51.026;13.752;2023-08-08T10:02:21;4.55;;;1.95;;
27489;SDS011;14925;51.026;13.752;2023-08-08T10:04:46;4.35;;;1.70;;
27489;SDS011;14925;51.026;13.752;2023-08-08T10:07:12;6.30;;;1.85;;
27489;SDS011;14925;51.026;13.752;2023-08-08T10:09:38;5.78;;;2.00;;
27489;SDS011;14925;51.026;13.752;2023-08-08T10:12:07;6.25;;;2.10;;
27489;SDS011;14925;51.026;13.752;2023-08-08T10:14:37;5.07;;;1.67;;
27489;SDS011;14925;51.026;13.752;2023-08-08T10:17:03;7.88;;;1.98;;
27489;SDS011;14925;51.026;13.752;2023-08-08T10:19:29;4.97;;;1.50;;
27489;SDS011;14925;51.026;13.752;2023-08-08T10:21:59;2.88;;;1.70;;
27489;SDS011;14925;51.026;13.752;2023-08-08T10:24:32;4.13;;;1.60;;
27489;SDS011;14925;51.026;13.752;2023-08-08T10:26:59;3.63;;;1.63;;
27489;SDS011;14925;51.026;13.752;2023-08-08T10:29:27;3.00;;;1.60;;
27489;SDS011;14925;51.026;13.752;2023-08-08T10:31:57;3.03;;;1.50;;
27489;SDS011;14925;51.026;13.752;2023-08-08T10:34:40;3.67;;;1.42;;
27489;SDS011;14925;51.026;13.752;2023-08-08T10:37:09;6.10;;;1.90;;
27489;SDS011;14925;51.026;13.752;2023-08-08T10:39:52;5.80;;;1.60;;
27489;SDS011;14925;51.026;13.752;2023-08-08T10:42:23;2.67;;;1.30;;
27489;SDS011;14925;51.026;13.752;2023-08-08T10:44:59;3.60;;;1.50;;
27489;SDS011;14925;51.026;13.752;2023-08-08T10:47:26;3.40;;;1.60;;
27489;SDS011;14925;51.026;13.752;2023-08-08T10:50:11;3.58;;;1.50;;
27489;SDS011;14925;51.026;13.752;2023-08-08T10:52:49;4.78;;;1.52;;
27489;SDS011;14925;51.026;13.752;2023-08-08T10:55:18;9.40;;;1.70;;
27489;SDS011;14925;51.026;13.752;2023-08-08T10:57:58;2.70;;;1.40;;
27489;SDS011;14925;51.026;13.752;2023-08-08T11:00:29;2.38;;;1.35;;
27489;SDS011;14925;51.026;13.752;2023-08-08T11:02:56;3.58;;;1.35;;
27489;SDS011;14925;51.026;13.752;2023-08-08T11:05:23;3.17;;;1.50;;
27489;SDS011;14925;51.026;13.752;2023-08-08T11:07:49;5.05;;;1.50;;
27489;SDS011;14925;51.026;13.752;2023-08-08T11:10:14;6.35;;;1.55;;
27489;SDS011;14925;51.026;13.752;2023-08-08T11:12:40;1.88;;;1.40;;
27489;SDS011;14925;51.026;13.752;2023-08-08T11:15:05;4.90;;;1.63;;
27489;SDS011;14925;51.026;13.752;2023-08-08T11:17:34;4.00;;;1.85;;
27489;SDS011;14925;51.026;13.752;2023-08-08T11:20:02;4.13;;;1.60;;
27489;SDS011;14925;51.026;13.752;2023-08-08T11:22:28;4.40;;;1.70;;
27489;SDS011;14925;51.026;13.752;2023-08-08T11:24:53;3.05;;;1.50;;
27489;SDS011;14925;51.026;13.752;2023-08-08T11:27:23;3.30;;;1.50;;
27489;SDS011;14925;51.026;13.752;2023-08-08T11:29:49;6.53;;;1.60;;
27489;SDS011;14925;51.026;13.752;2023-08-08T11:32:15;4.82;;;1.90;;
27489;SDS011;14925;51.026;13.752;2023-08-08T11:34:41;1.92;;;1.45;;
27489;SDS011;14925;51.026;13.752;2023-08-08T11:37:07;3.53;;;1.60;;
27489;SDS011;14925;51.026;13.752;2023-08-08T11:39:33;3.17;;;1.65;;
27489;SDS011;14925;51.026;13.752;2023-08-08T11:41:59;4.35;;;1.73;;
27489;SDS011;14925;51.026;13.752;2023-08-08T11:44:24;3.13;;;1.55;;
27489;SDS011;14925;51.026;13.752;2023-08-08T11:46:50;5.47;;;1.70;;
27489;SDS011;14925;51.026;13.752;2023-08-08T11:49:16;3.42;;;1.73;;
27489;SDS011;14925;51.026;13.752;2023-08-08T11:51:45;3.35;;;1.67;;
27489;SDS011;14925;51.026;13.752;2023-08-08T11:54:10;4.20;;;1.83;;
27489;SDS011;14925;51.026;13.752;2023-08-08T11:56:36;3.90;;;1.30;;
27489;SDS011;14925;51.026;13.752;2023-08-08T11:59:02;5.28;;;1.50;;
27489;SDS011;14925;51.026;13.752;2023-08-08T12:01:28;2.05;;;1.35;;
27489;SDS011;14925;51.026;13.752;2023-08-08T12:04:03;2.33;;;1.30;;
27489;SDS011;14925;51.026;13.752;2023-08-08T12:06:30;3.25;;;1.40;;
27489;SDS011;14925;51.026;13.752;2023-08-08T12:08:55;4.15;;;1.50;;
27489;SDS011;14925;51.026;13.752;2023-08-08T12:11:21;7.65;;;1.45;;
27489;SDS011;14925;51.026;13.752;2023-08-08T12:13:46;2.85;;;1.60;;
27489;SDS011;14925;51.026;13.752;2023-08-08T12:16:12;6.20;;;1.50;;
27489;SDS011;14925;51.026;13.752;2023-08-08T12:18:38;3.67;;;1.50;;
27489;SDS011;14925;51.026;13.752;2023-08-08T12:21:05;3.80;;;1.48;;
27489;SDS011;14925;51.026;13.752;2023-08-08T12:23:31;4.32;;;1.45;;
27489;SDS011;14925;51.026;13.752;2023-08-08T12:25:57;2.72;;;1.50;;
27489;SDS011;14925;51.026;13.752;2023-08-08T12:28:23;2.28;;;1.42;;
27489;SDS011;14925;51.026;13.752;2023-08-08T12:30:48;4.07;;;1.58;;
27489;SDS011;14925;51.026;13.752;2023-08-08T12:33:14;4.97;;;1.40;;
27489;SDS011;14925;51.026;13.752;2023-08-08T12:35:43;4.00;;;1.60;;
27489;SDS011;14925;51.026;13.752;2023-08-08T12:38:08;4.38;;;1.45;;
27489;SDS011;14925;51.026;13.752;2023-08-08T12:40:35;4.05;;;1.52;;
27489;SDS011;14925;51.026;13.752;2023-08-08T12:43:00;2.58;;;1.55;;
27489;SDS011;14925;51.026;13.752;2023-08-08T12:45:25;3.08;;;1.40;;
27489;SDS011;14925;51.026;13.752;2023-08-08T12:47:51;3.53;;;1.30;;
27489;SDS011;14925;51.026;13.752;2023-08-08T12:50:16;4.20;;;1.65;;
27489;SDS011;14925;51.026;13.752;2023-08-08T12:52:42;3.33;;;1.77;;
27489;SDS011;14925;51.026;13.752;2023-08-08T12:55:07;3.88;;;1.40;;
27489;SDS011;14925;51.026;13.752;2023-08-08T12:57:34;2.33;;;1.40;;
27489;SDS011;14925;51.026;13.752;2023-08-08T13:00:00;4.03;;;1.50;;
27489;SDS011;14925;51.026;13.752;2023-08-08T13:02:25;3.10;;;1.50;;
27489;SDS011;14925;51.026;13.752;2023-08-08T13:04:50;2.88;;;1.60;;
27489;SDS011;14925;51.026;13.752;2023-08-08T13:07:16;3.42;;;1.58;;
27489;SDS011;14925;51.026;13.752;2023-08-08T13:09:41;2.88;;;1.40;;
27489;SDS011;14925;51.026;13.752;2023-08-08T13:12:07;4.60;;;1.73;;
27489;SDS011;14925;51.026;13.752;2023-08-08T13:14:32;2.08;;;1.40;;
27489;SDS011;14925;51.026;13.752;2023-08-08T13:17:00;3.22;;;1.48;;
27489;SDS011;14925;51.026;13.752;2023-08-08T13:19:26;5.10;;;1.65;;
27489;SDS011;14925;51.026;13.752;2023-08-08T13:21:55;4.15;;;1.58;;
27489;SDS011;14925;51.026;13.752;2023-08-08T13:24:20;2.08;;;1.50;;
27489;SDS011;14925;51.026;13.752;2023-08-08T13:26:48;4.78;;;1.40;;
27489;SDS011;14925;51.026;13.752;2023-08-08T13:29:14;2.67;;;1.52;;
27489;SDS011;14925;51.026;13.752;2023-08-08T13:31:39;3.10;;;1.83;;
27489;SDS011;14925;51.026;13.752;2023-08-08T13:34:05;2.13;;;1.30;;
27489;SDS011;14925;51.026;13.752;2023-08-08T13:36:30;2.80;;;1.50;;
27489;SDS011;14925;51.026;13.752;2023-08-08T13:38:55;4.53;;;1.55;;
27489;SDS011;14925;51.026;13.752;2023-08-08T13:41:21;3.05;;;1.40;;
27489;SDS011;14925;51.026;13.752;2023-08-08T13:43:46;4.05;;;1.50;;
27489;SDS011;14925;51.026;13.752;2023-08-08T13:46:12;2.65;;;1.65;;
27489;SDS011;14925;51.026;13.752;2023-08-08T13:48:37;3.35;;;1.67;;
27489;SDS011;14925;51.026;13.752;2023-08-08T13:51:06;3.17;;;1.50;;
27489;SDS011;14925;51.026;13.752;2023-08-08T13:53:31;3.42;;;1.50;;
27489;SDS011;14925;51.026;13.752;2023-08-08T13:55:57;4.47;;;1.80;;
27489;SDS011;14925;51.026;13.752;2023-08-08T13:58:22;2.15;;;1.40;;
27489;SDS011;14925;51.026;13.752;2023-08-08T14:00:48;3.13;;;1.63;;
27489;SDS011;14925;51.026;13.752;2023-08-08T14:03:14;4.97;;;1.63;;
27489;SDS011;14925;51.026;13.752;2023-08-08T14:05:39;3.63;;;1.75;;
27489;SDS011;14925;51.026;13.752;2023-08-08T14:08:05;2.92;;;1.80;;
27489;SDS011;14925;51.026;13.752;2023-08-08T14:10:30;3.60;;;1.90;;
27489;SDS011;14925;51.026;13.752;2023-08-08T14:13:05;3.22;;;1.85;;
27489;SDS011;14925;51.026;13.752;2023-08-08T14:15:31;2.63;;;1.73;;
27489;SDS011;14925;51.026;13.752;2023-08-08T14:17:58;3.65;;;2.08;;
27489;SDS011;14925;51.026;13.752;2023-08-08T14:20:24;3.70;;;1.98;;
27489;SDS011;14925;51.026;13.752;2023-08-08T14:23:01;5.88;;;2.20;;
27489;SDS011;14925;51.026;13.752;2023-08-08T14:25:27;6.32;;;2.05;;
27489;SDS011;14925;51.026;13.752;2023-08-08T14:27:54;3.97;;;2.17;;
27489;SDS011;14925;51.026;13.752;2023-08-08T14:30:23;3.55;;;2.20;;